createdAt,value
2018-10-09T00:01:58.533Z,66.70
2018-10-09T00:04:27.447Z,66.80
2018-10-09T00:06:55.203Z,66.74
2018-10-09T00:09:23.533Z,66.86
2018-10-09T00:11:52.426Z,66.84
2018-10-09T00:14:20.770Z,66.92
2018-10-09T00:16:49.091Z,67.38
2018-10-09T00:19:16.833Z,67.36
2018-10-09T00:21:45.159Z,67.31
2018-10-09T00:24:14.060Z,67.44
2018-10-09T00:26:42.377Z,67.68
2018-10-09T00:29:10.689Z,67.74
2018-10-09T00:31:39.739Z,67.81
2018-10-09T00:34:07.334Z,67.82
2018-10-09T00:36:35.082Z,67.87
2018-10-09T00:39:03.974Z,67.87
2018-10-09T00:41:32.285Z,68.08
2018-10-09T00:44:00.612Z,68.26
2018-10-09T00:46:28.349Z,68.15
2018-10-09T00:48:56.681Z,68.27
2018-10-09T00:51:25.007Z,68.09
2018-10-09T00:53:53.333Z,68.27
2018-10-09T00:56:22.227Z,68.50
2018-10-09T00:58:49.982Z,68.25
2018-10-09T01:01:18.306Z,68.54
2018-10-09T01:03:47.201Z,68.58
2018-10-09T01:06:15.525Z,68.29
2018-10-09T01:08:43.315Z,68.28
2018-10-09T01:11:12.236Z,68.59
2018-10-09T01:13:40.569Z,68.58
2018-10-09T01:16:08.314Z,68.65
2018-10-09T01:18:37.217Z,68.62
2018-10-09T01:21:04.963Z,68.41
2018-10-09T01:23:33.876Z,68.56
2018-10-09T01:26:02.195Z,68.50
2018-10-09T01:28:30.533Z,68.46
2018-10-09T01:30:58.852Z,68.44
2018-10-09T01:33:27.180Z,68.63
2018-10-09T01:35:56.097Z,68.53
2018-10-09T01:38:23.838Z,68.48
2018-10-09T01:40:51.582Z,68.45
2018-10-09T01:43:20.495Z,68.35
2018-10-09T01:45:48.246Z,68.35
2018-10-09T01:48:17.149Z,68.29
2018-10-09T01:50:45.487Z,68.26
2018-10-09T01:53:13.228Z,68.36
2018-10-09T01:55:41.556Z,68.25
2018-10-09T01:58:09.883Z,68.28
2018-10-09T02:00:38.793Z,68.38
2018-10-09T02:03:07.119Z,68.35
2018-10-09T02:05:35.436Z,68.59
2018-10-09T02:08:03.775Z,68.62
2018-10-09T02:10:31.529Z,68.58
2018-10-09T02:13:01.165Z,68.62
2018-10-09T02:15:28.750Z,68.51
2018-10-09T02:17:56.490Z,68.56
2018-10-09T02:20:25.394Z,68.58
2018-10-09T02:22:53.132Z,68.86
2018-10-09T02:25:21.459Z,69.22
2018-10-09T02:27:50.364Z,69.50
2018-10-09T02:30:18.111Z,69.49
2018-10-09T02:32:46.450Z,69.59
2018-10-09T02:35:15.371Z,69.85
2018-10-09T02:37:43.700Z,70.03
2018-10-09T02:40:11.453Z,70.48
2018-10-09T02:42:40.383Z,70.58
2018-10-09T02:45:08.717Z,70.83
2018-10-09T02:47:37.039Z,71.09
2018-10-09T02:50:05.372Z,71.19
2018-10-09T02:52:33.106Z,71.20
2018-10-09T02:55:01.433Z,71.30
2018-10-09T02:57:30.329Z,71.16
2018-10-09T02:59:58.076Z,71.08
2018-10-09T03:02:26.996Z,71.42
2018-10-09T03:04:55.326Z,71.47
2018-10-09T03:07:23.064Z,71.39
2018-10-09T03:09:51.390Z,71.40
2018-10-09T03:12:20.339Z,71.53
2018-10-09T03:14:48.078Z,71.50
2018-10-09T03:17:16.981Z,71.43
2018-10-09T03:19:45.300Z,71.39
2018-10-09T03:22:13.619Z,71.72
2018-10-09T03:24:41.946Z,71.85
2018-10-09T03:27:10.260Z,71.82
2018-10-09T03:29:38.587Z,72.23
2018-10-09T03:32:06.334Z,72.30
2018-10-09T03:34:35.472Z,72.24
2018-10-09T03:37:03.579Z,72.25
2018-10-09T03:39:31.904Z,72.49
2018-10-09T03:41:59.662Z,72.53
2018-10-09T03:44:27.986Z,72.25
2018-10-09T03:46:56.903Z,72.26
2018-10-09T03:49:24.664Z,71.92
2018-10-09T03:51:53.580Z,71.88
2018-10-09T03:54:21.904Z,72.14
2018-10-09T03:56:50.230Z,72.60
2018-10-09T03:59:18.567Z,72.60
2018-10-09T04:01:46.313Z,72.64
2018-10-09T04:04:14.668Z,72.63
2018-10-09T04:06:43.572Z,72.76
2018-10-09T04:09:12.012Z,72.65
2018-10-09T04:11:40.146Z,72.96
2018-10-09T04:14:08.602Z,73.30
2018-10-09T04:16:36.350Z,73.33
2018-10-09T04:19:04.669Z,73.40
2018-10-09T04:21:33.583Z,73.47
2018-10-09T04:24:01.333Z,73.50
2018-10-09T04:26:29.657Z,73.24
2018-10-09T04:28:57.991Z,73.13
2018-10-09T04:31:26.927Z,73.04
2018-10-09T04:33:55.486Z,73.03
2018-10-09T04:36:23.015Z,73.40
2018-10-09T04:38:51.344Z,73.62
2018-10-09T04:41:20.247Z,74.02
2018-10-09T04:43:48.005Z,73.74
2018-10-09T04:46:16.918Z,73.89
2018-10-09T04:48:45.246Z,73.68
2018-10-09T04:51:13.618Z,73.76
2018-10-09T04:53:41.931Z,74.03
2018-10-09T04:56:10.253Z,74.33
2018-10-09T04:58:38.571Z,74.29
2018-10-09T05:01:06.360Z,74.42
2018-10-09T05:03:34.645Z,74.29
2018-10-09T05:06:02.979Z,74.53
2018-10-09T05:08:31.306Z,74.37
2018-10-09T05:11:00.222Z,74.61
2018-10-09T05:13:28.558Z,74.45
2018-10-09T05:15:56.924Z,74.57
2018-10-09T05:18:24.691Z,74.88
2018-10-09T05:20:53.615Z,74.86
2018-10-09T05:23:21.415Z,74.85
2018-10-09T05:25:49.693Z,75.23
2018-10-09T05:28:18.602Z,74.77
2018-10-09T05:30:46.926Z,74.58
2018-10-09T05:33:15.250Z,74.54
2018-10-09T05:35:43.586Z,74.18
2018-10-09T05:38:11.896Z,73.89
2018-10-09T05:40:40.221Z,73.69
2018-10-09T05:43:09.498Z,73.43
2018-10-09T05:45:37.233Z,73.25
2018-10-09T05:48:06.142Z,73.13
2018-10-09T05:50:34.480Z,73.06
2018-10-09T05:53:02.243Z,72.93
2018-10-09T05:55:30.750Z,72.77
2018-10-09T05:57:58.928Z,72.66
2018-10-09T06:00:27.823Z,72.43
2018-10-09T06:02:55.582Z,72.31
2018-10-09T06:05:24.510Z,72.25
2018-10-09T06:07:52.838Z,72.20
2018-10-09T06:10:20.578Z,71.88
2018-10-09T06:12:49.488Z,71.68
2018-10-09T06:15:17.863Z,71.59
2018-10-09T06:17:45.593Z,71.44
2018-10-09T06:20:14.507Z,71.08
2018-10-09T06:22:43.389Z,70.99
2018-10-09T06:25:11.497Z,70.52
2018-10-09T06:27:39.247Z,68.78
2018-10-09T06:30:07.576Z,66.51
2018-10-09T06:32:35.909Z,65.55
2018-10-09T06:35:04.233Z,66.25
2018-10-09T06:37:33.147Z,67.05
2018-10-09T06:40:00.902Z,67.12
2018-10-09T06:42:29.823Z,67.76
2018-10-09T06:44:57.557Z,67.79
2018-10-09T06:47:25.927Z,67.67
2018-10-09T06:49:54.800Z,67.61
2018-10-09T06:52:23.137Z,67.08
2018-10-09T06:54:50.976Z,66.89
2018-10-09T06:57:19.813Z,67.15
2018-10-09T06:59:47.574Z,66.88
2018-10-09T07:02:16.483Z,66.94
2018-10-09T07:04:44.815Z,66.58
2018-10-09T07:07:13.376Z,66.38
2018-10-09T07:09:40.894Z,66.06
2018-10-09T07:12:09.270Z,65.93
2018-10-09T07:14:38.191Z,65.41
2018-10-09T07:17:06.568Z,65.47
2018-10-09T07:19:34.289Z,65.18
2018-10-09T07:22:02.613Z,65.11
2018-10-09T07:24:30.943Z,64.77
2018-10-09T07:26:59.273Z,64.98
2018-10-09T07:29:27.619Z,64.47
2018-10-09T07:31:56.528Z,64.22
2018-10-09T07:34:24.869Z,64.05
2018-10-09T07:36:52.625Z,64.29
2018-10-09T07:39:20.953Z,64.02
2018-10-09T07:41:49.293Z,63.51
2018-10-09T07:44:18.259Z,63.17
2018-10-09T07:46:46.596Z,63.52
2018-10-09T07:49:14.946Z,62.96
2018-10-09T07:51:42.701Z,62.91
2018-10-09T07:54:11.608Z,62.65
2018-10-09T07:56:39.944Z,62.11
2018-10-09T07:59:08.277Z,61.87
2018-10-09T08:01:36.606Z,62.01
2018-10-09T08:04:04.354Z,61.48
2018-10-09T08:06:33.264Z,61.96
2018-10-09T08:09:01.604Z,61.54
2018-10-09T08:11:29.916Z,61.23
2018-10-09T08:13:57.659Z,60.58
2018-10-09T08:16:26.687Z,60.87
2018-10-09T08:18:54.949Z,61.01
2018-10-09T08:21:22.975Z,60.49
2018-10-09T08:23:51.630Z,59.86
2018-10-09T08:26:19.966Z,60.08
2018-10-09T08:28:48.297Z,59.78
2018-10-09T08:32:30.442Z,60.04
2018-10-09T08:34:59.387Z,59.64
2018-10-09T13:33:56.391Z,33.98
2018-10-09T13:36:24.129Z,33.40
2018-10-09T13:38:52.524Z,33.94
2018-10-09T13:41:22.232Z,33.41
2018-10-09T13:43:50.004Z,32.64
2018-10-09T13:46:19.007Z,32.63
2018-10-09T13:48:47.357Z,31.39
2018-10-09T13:51:15.679Z,32.34
2018-10-09T13:53:43.424Z,32.28
2018-10-09T13:56:12.330Z,32.51
2018-10-09T13:58:40.666Z,33.39
2018-10-09T14:01:08.990Z,32.79
2018-10-09T14:03:36.741Z,31.53
2018-10-09T14:06:06.294Z,31.69
2018-10-09T14:08:33.966Z,33.01
2018-10-09T14:11:02.873Z,33.76
2018-10-09T14:13:31.394Z,34.43
2018-10-09T14:15:59.134Z,33.01
2018-10-09T14:18:28.105Z,31.41
2018-10-09T14:20:56.425Z,31.24
2018-10-09T14:23:24.760Z,30.67
2018-10-09T14:25:53.142Z,29.66
2018-10-09T14:28:21.466Z,30.63
2018-10-09T14:30:49.204Z,32.92
2018-10-09T14:33:17.542Z,34.70
2018-10-09T14:35:46.467Z,36.46
2018-10-09T14:38:14.214Z,37.31
2018-10-09T14:40:43.154Z,38.65
2018-10-09T14:43:10.901Z,39.26
2018-10-09T14:45:39.295Z,40.05
2018-10-09T14:48:08.447Z,40.85
2018-10-09T14:50:36.009Z,41.26
2018-10-09T14:53:04.334Z,41.56
2018-10-09T14:55:32.666Z,42.16
2018-10-09T14:58:01.640Z,42.45
2018-10-09T15:00:29.462Z,42.63
2018-10-09T15:02:58.015Z,43.28
2018-10-09T15:05:26.144Z,43.72
2018-10-09T15:07:55.061Z,44.10
2018-10-09T15:10:23.488Z,44.70
2018-10-09T15:12:51.816Z,44.66
2018-10-09T15:15:20.148Z,44.97
2018-10-09T15:17:48.487Z,45.68
2018-10-09T15:20:16.836Z,46.48
2018-10-09T15:22:45.175Z,47.29
2018-10-09T15:25:13.030Z,48.07
2018-10-09T15:27:41.986Z,49.08
2018-10-09T15:30:10.306Z,49.64
2018-10-09T15:32:38.701Z,50.03
2018-10-09T15:35:07.069Z,50.63
2018-10-09T15:37:35.619Z,51.50
2018-10-09T15:40:03.945Z,52.68
2018-10-09T15:42:31.733Z,54.10
2018-10-09T15:45:00.792Z,54.57
2018-10-09T15:47:30.006Z,56.26
2018-10-09T15:49:58.346Z,55.95
2018-10-09T15:52:26.133Z,56.81
2018-10-09T15:54:55.041Z,56.93
2018-10-09T15:57:22.833Z,58.63
2018-10-09T15:59:51.737Z,58.69
2018-10-09T16:02:20.171Z,60.06
2018-10-09T16:04:48.505Z,59.99
2018-10-09T16:07:16.834Z,60.19
2018-10-09T16:09:45.166Z,61.36
2018-10-09T16:12:13.509Z,61.64
2018-10-09T16:14:41.840Z,61.24
2018-10-09T16:17:10.197Z,61.65
2018-10-09T16:19:37.942Z,62.28
2018-10-09T16:22:06.877Z,63.03
2018-10-09T16:24:35.242Z,63.53
2018-10-09T16:27:03.603Z,63.60
2018-10-09T16:29:31.925Z,63.67
2018-10-09T16:31:59.780Z,63.65
2018-10-09T16:34:28.709Z,63.83
2018-10-09T16:36:56.504Z,63.86
2018-10-09T16:39:25.479Z,64.02
2018-10-09T16:41:54.101Z,63.81
2018-10-09T16:44:22.282Z,63.99
2018-10-09T16:46:50.605Z,64.12
2018-10-09T16:49:19.256Z,63.81
2018-10-09T16:51:46.781Z,64.09
2018-10-09T16:54:15.704Z,64.27
2018-10-09T16:56:44.076Z,64.50
2018-10-09T16:59:12.429Z,64.49
2018-10-09T17:01:40.810Z,64.29
2018-10-09T17:04:09.195Z,64.13
2018-10-09T17:06:37.537Z,64.43
2018-10-09T17:09:05.864Z,64.80
2018-10-09T17:11:34.322Z,64.77
2018-10-09T17:14:02.756Z,64.84
2018-10-09T17:16:31.103Z,64.96
2018-10-09T17:18:59.437Z,64.94
2018-10-09T17:21:27.211Z,64.80
2018-10-09T17:23:56.500Z,65.49
2018-10-09T17:26:24.890Z,65.61
2018-10-09T17:28:52.646Z,65.38
2018-10-09T17:31:20.990Z,65.59
2018-10-09T17:33:51.852Z,65.63
2018-10-09T17:36:20.444Z,66.01
2018-10-09T17:38:48.772Z,66.28
2018-10-09T17:41:17.241Z,66.26
2018-10-09T17:43:45.583Z,66.58
2018-10-09T17:46:14.054Z,66.64
2018-10-09T17:48:41.868Z,66.62
2018-10-09T17:51:10.723Z,66.73
2018-10-09T17:53:39.144Z,66.75
2018-10-09T17:56:07.428Z,67.12
2018-10-09T17:58:35.833Z,67.52
2018-10-09T18:01:04.211Z,67.84
2018-10-09T18:03:32.837Z,68.15
2018-10-09T18:06:01.223Z,68.30
2018-10-09T18:08:29.571Z,68.65
2018-10-09T18:10:58.042Z,68.74
2018-10-09T18:13:26.809Z,68.85
2018-10-09T18:15:55.347Z,68.80
2018-10-09T18:18:23.716Z,68.60
2018-10-09T18:20:52.103Z,68.37
2018-10-09T18:23:19.963Z,68.35
2018-10-09T18:25:48.921Z,68.43
2018-10-09T18:28:18.271Z,68.77
2018-10-09T18:30:46.765Z,69.35
2018-10-09T18:33:14.636Z,69.27
2018-10-09T18:35:43.518Z,68.92
2018-10-09T18:38:13.854Z,68.78
2018-10-09T18:40:41.724Z,68.79
2018-10-09T18:43:10.098Z,68.87
2018-10-09T18:45:39.028Z,69.00
2018-10-09T18:48:07.464Z,69.10
2018-10-09T18:50:35.821Z,69.10
2018-10-09T18:53:04.180Z,69.09
2018-10-09T18:55:32.571Z,69.27
2018-10-09T18:58:00.326Z,69.44
2018-10-09T19:00:29.318Z,69.39
2018-10-09T19:03:00.145Z,69.60
2018-10-09T19:05:28.519Z,69.92
2018-10-09T19:07:57.118Z,69.91
2018-10-09T19:10:27.384Z,70.12
2018-10-09T19:12:54.489Z,70.35
2018-10-09T19:15:23.270Z,70.44
2018-10-09T19:17:51.642Z,70.47
2018-10-09T19:20:19.959Z,70.53
2018-10-09T19:22:48.337Z,70.30
2018-10-09T19:25:16.925Z,70.62
2018-10-09T19:27:45.062Z,70.65
2018-10-09T19:30:13.400Z,70.57
2018-10-09T19:32:42.093Z,70.72
2018-10-09T19:35:10.435Z,70.62
2018-10-09T19:37:39.060Z,70.66
2018-10-09T19:40:07.981Z,70.57
2018-10-09T19:42:36.391Z,70.66
2018-10-09T19:45:04.866Z,70.51
2018-10-09T19:47:33.582Z,70.48
2018-10-09T19:50:02.586Z,70.51
2018-10-09T19:52:30.948Z,70.38
2018-10-09T19:54:59.283Z,70.44
2018-10-09T19:57:27.038Z,70.20
2018-10-09T19:59:55.963Z,70.21
2018-10-09T20:02:23.743Z,70.30
2018-10-09T20:04:52.081Z,70.22
2018-10-09T20:07:20.436Z,70.29
2018-10-09T20:09:49.351Z,70.33
2018-10-09T20:12:17.105Z,70.40
2018-10-09T20:14:46.024Z,70.34
2018-10-09T20:17:13.793Z,70.50
2018-10-09T20:19:42.713Z,70.73
2018-10-09T20:22:11.086Z,70.62
2018-10-09T20:24:39.495Z,70.73
2018-10-09T20:27:07.784Z,70.59
2018-10-09T20:35:38.538Z,70.70
2018-10-09T20:38:07.507Z,70.84
2018-10-09T20:40:35.855Z,70.77
2018-10-09T20:43:07.503Z,70.58
2018-10-09T20:45:36.061Z,70.44
2018-10-09T20:48:04.446Z,70.55
2018-10-09T20:50:32.826Z,70.49
2018-10-09T20:53:01.169Z,70.52
2018-10-09T20:57:58.501Z,70.64
2018-10-09T21:00:26.869Z,70.63
2018-10-09T21:02:54.624Z,70.49
2018-10-09T21:05:23.729Z,70.61
2018-10-09T21:07:52.106Z,70.55
2018-10-09T21:10:20.443Z,70.92
2018-10-09T21:12:49.007Z,70.99
2018-10-09T21:15:17.365Z,70.79
2018-10-09T21:17:45.878Z,70.53
2018-10-09T21:20:14.066Z,70.59
2018-10-09T21:22:42.391Z,70.55
2018-10-09T21:25:11.026Z,70.31
2018-10-09T21:27:38.780Z,70.51
2018-10-09T21:30:07.706Z,70.50
2018-10-09T21:32:36.046Z,70.38
2018-10-09T21:35:03.818Z,70.19
2018-10-09T21:37:32.963Z,69.92
2018-10-09T21:40:01.135Z,70.06
2018-10-09T21:42:29.474Z,69.90
2018-10-09T21:44:57.820Z,69.97
2018-10-09T21:47:26.179Z,69.97
2018-10-09T21:49:53.939Z,69.99
2018-10-09T21:52:22.270Z,70.10
2018-10-09T21:54:51.226Z,70.01
2018-10-09T21:57:19.010Z,70.12
2018-10-09T21:59:47.896Z,69.99
2018-10-09T22:02:16.233Z,70.18
2018-10-09T22:04:43.997Z,70.07
2018-10-09T22:07:12.915Z,70.03
2018-10-09T22:09:41.340Z,69.91
2018-10-09T22:12:09.672Z,70.16
2018-10-09T22:14:37.460Z,70.19
2018-10-09T22:17:06.372Z,70.30
2018-10-09T22:19:34.809Z,70.21
2018-10-09T22:22:02.784Z,70.55
2018-10-09T22:24:31.509Z,70.81
2018-10-09T22:26:59.865Z,70.98
2018-10-09T22:29:28.210Z,71.69
2018-10-09T22:31:55.961Z,72.17
2018-10-09T22:34:24.929Z,72.07
2018-10-09T22:36:52.689Z,72.14
2018-10-09T22:39:21.592Z,72.06
2018-10-09T22:41:49.930Z,71.80
2018-10-09T22:44:18.509Z,71.99
2018-10-09T22:46:46.016Z,72.09
2018-10-09T22:49:14.387Z,72.07
2018-10-09T22:51:43.300Z,71.95
2018-10-09T22:54:11.065Z,72.06
2018-10-09T22:56:39.980Z,72.02
2018-10-09T22:59:08.335Z,72.47
2018-10-09T23:01:36.096Z,72.39
2018-10-09T23:04:04.429Z,72.32
2018-10-09T23:06:33.340Z,72.31
2018-10-09T23:09:01.673Z,72.00
2018-10-09T23:11:29.784Z,71.83
2018-10-09T23:13:58.336Z,71.83
2018-10-09T23:16:26.666Z,71.79
2018-10-09T23:18:54.491Z,71.74
2018-10-09T23:21:22.767Z,71.65
2018-10-09T23:23:51.068Z,71.67
2018-10-09T23:26:19.405Z,71.71
2018-10-09T23:28:47.757Z,71.60
2018-10-09T23:31:16.680Z,71.38
2018-10-09T23:33:45.014Z,71.28
2018-10-09T23:36:12.761Z,71.29
2018-10-09T23:38:41.670Z,71.25
2018-10-09T23:41:10.014Z,71.27
2018-10-09T23:43:37.758Z,71.31
2018-10-09T23:46:06.091Z,71.50
2018-10-09T23:48:34.990Z,71.67
2018-10-09T23:51:03.366Z,71.67
2018-10-09T23:53:31.713Z,71.67
2018-10-09T23:55:59.453Z,71.80
2018-10-09T23:58:27.788Z,72.05
